Time;durP1;ratioP1;P1;durP2;ratioP2;P2;SDS_P1;SDS_P2;PMS_P1;PMS_P2;Temp;Humidity;BMP_temperature;BMP_pressure;BME280_temperature;BME280_humidity;BME280_pressure;Samples;Min_cycle;Max_cycle;Signal;HPM_P1;HPM_P2
2022/03/28 00:02:11;;;;;;;0.15;0.10;;;29.00;99.90;;;;;;4923877;29;20541;-74
2022/03/28 00:04:41;;;;;;;0.50;0.10;;;28.90;99.90;;;;;;4926197;29;20032;-71
2022/03/28 00:07:09;;;;;;;0.70;0.10;;;29.00;99.90;;;;;;4925341;29;20123;-74
2022/03/28 00:09:36;;;;;;;0.25;0.20;;;29.40;99.90;;;;;;4923176;29;20024;-72
2022/03/28 00:12:04;;;;;;;5.35;0.40;;;29.80;99.90;;;;;;4924681;29;20032;-71
2022/03/28 00:14:31;;;;;;;1.35;0.13;;;29.90;99.90;;;;;;4925117;29;20127;-71
2022/03/28 00:16:58;;;;;;;0.32;0.10;;;30.10;99.90;;;;;;4925339;29;20118;-71
2022/03/28 00:19:26;;;;;;;0.15;0.10;;;30.40;99.90;;;;;;4925395;29;20039;-73
2022/03/28 00:21:56;;;;;;;1.23;0.08;;;30.40;99.90;;;;;;4925823;29;20111;-73
2022/03/28 00:24:25;;;;;;;0.20;0.10;;;30.00;99.90;;;;;;4922002;29;20036;-72
2022/03/28 00:26:54;;;;;;;1.35;0.10;;;29.20;99.90;;;;;;4924502;29;20032;-72
2022/03/28 00:29:22;;;;;;;0.65;0.10;;;28.60;99.90;;;;;;4925317;29;20377;-71
2022/03/28 00:31:50;;;;;;;1.00;0.15;;;28.00;99.90;;;;;;4925349;29;20031;-72
2022/03/28 00:34:21;;;;;;;0.55;0.30;;;27.60;99.90;;;;;;4924081;29;20047;-72
2022/03/28 00:36:50;;;;;;;0.85;0.20;;;27.30;99.90;;;;;;4922678;29;20036;-72
2022/03/28 00:39:22;;;;;;;0.20;0.10;;;27.30;99.90;;;;;;4922778;29;20115;-71
2022/03/28 00:41:51;;;;;;;0.30;0.10;;;27.30;99.90;;;;;;4922050;29;20024;-72
2022/03/28 00:44:19;;;;;;;0.35;0.20;;;27.30;99.90;;;;;;4926002;29;20557;-71
2022/03/28 00:46:47;;;;;;;0.10;0.10;;;27.20;99.90;;;;;;4926621;29;20028;-71
2022/03/28 00:49:16;;;;;;;0.10;0.10;;;27.20;99.90;;;;;;4925576;29;20024;-71
2022/03/28 00:51:44;;;;;;;0.60;0.20;;;27.20;99.90;;;;;;4924934;29;20027;-70
2022/03/28 00:54:11;;;;;;;0.43;0.30;;;27.50;99.90;;;;;;4925095;29;22812;-71
2022/03/28 00:56:40;;;;;;;0.73;0.25;;;27.50;99.90;;;;;;4925151;29;20020;-70
2022/03/28 00:59:08;;;;;;;0.10;0.10;;;27.70;99.90;;;;;;4921450;29;20028;-72
2022/03/28 01:01:35;;;;;;;0.30;0.10;;;27.70;99.90;;;;;;4923503;29;20020;-70
2022/03/28 01:04:08;;;;;;;0.93;0.20;;;27.90;99.90;;;;;;4925091;29;20027;-71
2022/03/28 01:06:39;;;;;;;0.20;0.15;;;28.20;99.90;;;;;;4924918;29;20038;-71
2022/03/28 01:09:07;;;;;;;0.40;0.20;;;28.10;99.90;;;;;;4924143;29;20463;-70
2022/03/28 01:11:36;;;;;;;0.10;0.05;;;28.20;99.90;;;;;;4920725;29;20028;-70
2022/03/28 01:14:04;;;;;;;0.63;0.30;;;28.70;99.90;;;;;;4922247;29;20048;-71
2022/03/28 01:18:05;;;;;;;0.20;0.10;;;29.30;99.90;;;;;;4924716;29;20032;-71
2022/03/28 01:19:24;;;;;;;0.10;0.10;;;29.70;99.90;;;;;;4924362;29;20039;-72
2022/03/28 01:21:52;;;;;;;0.57;0.10;;;29.90;99.90;;;;;;4924011;29;20032;-72
2022/03/28 01:24:20;;;;;;;0.10;0.10;;;29.40;99.90;;;;;;4924424;29;20600;-72
2022/03/28 01:26:49;;;;;;;0.10;0.10;;;29.20;99.90;;;;;;4925411;29;20031;-71
2022/03/28 01:29:17;;;;;;;0.30;0.20;;;29.20;99.90;;;;;;4924969;29;20038;-72
2022/03/28 01:31:45;;;;;;;0.20;0.10;;;28.90;99.90;;;;;;4925239;29;20036;-72
2022/03/28 01:34:22;;;;;;;0.28;0.10;;;28.80;99.90;;;;;;4921315;29;20051;-72
2022/03/28 01:36:49;;;;;;;0.28;0.10;;;28.70;99.90;;;;;;4923541;29;20027;-72
2022/03/28 01:39:18;;;;;;;0.90;0.70;;;28.70;99.90;;;;;;4921694;29;20519;-71
2022/03/28 01:41:46;;;;;;;1.73;0.52;;;28.60;99.90;;;;;;4922766;29;20032;-71
2022/03/28 01:44:14;;;;;;;0.52;0.20;;;28.70;99.90;;;;;;4924429;29;20463;-72
2022/03/28 01:46:46;;;;;;;1.30;0.35;;;28.70;99.90;;;;;;4923000;29;20032;-72
2022/03/28 01:49:15;;;;;;;0.20;0.10;;;28.80;99.90;;;;;;4921523;29;20028;-72
2022/03/28 01:51:43;;;;;;;2.10;0.10;;;28.90;99.90;;;;;;4927526;29;20040;-72
2022/03/28 01:54:10;;;;;;;0.10;0.10;;;29.30;99.90;;;;;;4925537;29;20039;-71
2022/03/28 01:56:39;;;;;;;0.08;0.08;;;29.30;99.90;;;;;;4926274;29;20036;-73
2022/03/28 01:59:08;;;;;;;0.70;0.10;;;29.30;99.90;;;;;;4918476;29;20070;-72
2022/03/28 02:01:36;;;;;;;0.57;0.15;;;29.40;99.90;;;;;;4916763;29;20058;-73
2022/03/28 02:04:04;;;;;;;1.02;0.00;;;30.00;99.90;;;;;;4928971;29;20451;-73
2022/03/28 02:06:35;;;;;;;0.40;0.10;;;30.20;99.90;;;;;;4929902;29;20522;-72
2022/03/28 02:12:24;;;;;;;0.10;0.10;;;29.50;99.90;;;;;;5265373;23;20066;-71
2022/03/28 02:14:52;;;;;;;0.63;0.20;;;29.30;99.90;;;;;;4976941;28;20415;-71
2022/03/28 02:17:19;;;;;;;0.13;0.10;;;29.50;99.90;;;;;;4985736;28;20105;-70
2022/03/28 02:19:46;;;;;;;0.20;0.10;;;30.00;99.60;;;;;;4985831;28;20130;-70
2022/03/28 02:22:14;;;;;;;0.20;0.10;;;30.70;99.90;;;;;;4975998;28;20547;-71
2022/03/28 02:24:41;;;;;;;0.57;0.10;;;31.00;99.00;;;;;;4986777;28;20062;-71
2022/03/28 02:27:08;;;;;;;0.47;0.20;;;30.60;98.50;;;;;;4991595;28;20064;-71
2022/03/28 02:29:36;;;;;;;0.10;0.10;;;30.60;99.10;;;;;;4975879;28;20019;-71
2022/03/28 02:32:04;;;;;;;0.25;0.10;;;30.90;99.30;;;;;;4979233;28;20034;-71
2022/03/28 02:34:31;;;;;;;1.38;0.17;;;31.10;98.30;;;;;;4971838;28;20081;-71
2022/03/28 02:36:59;;;;;;;0.30;0.10;;;31.30;98.70;;;;;;4970209;28;20038;-72
2022/03/28 02:39:26;;;;;;;0.40;0.10;;;31.10;98.50;;;;;;4971263;28;20039;-71
2022/03/28 02:41:53;;;;;;;0.20;0.13;;;31.30;98.40;;;;;;4984006;28;20053;-70
2022/03/28 02:44:21;;;;;;;1.65;0.20;;;31.30;99.30;;;;;;4970186;28;20058;-71
2022/03/28 02:46:49;;;;;;;0.20;0.20;;;31.30;99.50;;;;;;4974172;28;20038;-74
2022/03/28 02:49:19;;;;;;;0.30;0.13;;;31.70;97.90;;;;;;4975963;28;20097;-72
2022/03/28 02:51:47;;;;;;;1.65;0.20;;;32.00;97.40;;;;;;4975062;28;20172;-71
2022/03/28 02:54:15;;;;;;;0.30;0.20;;;32.30;97.30;;;;;;4974498;28;20070;-71
2022/03/28 02:56:42;;;;;;;1.15;0.30;;;32.60;97.30;;;;;;4976250;28;20077;-71
2022/03/28 02:59:09;;;;;;;0.60;0.20;;;32.70;96.70;;;;;;4975574;28;20404;-71
2022/03/28 03:01:37;;;;;;;0.77;0.28;;;32.40;96.70;;;;;;4976248;28;20322;-71
2022/03/28 03:04:04;;;;;;;0.45;0.20;;;31.50;97.30;;;;;;4981254;28;20027;-72
2022/03/28 03:06:31;;;;;;;1.13;0.20;;;30.70;98.20;;;;;;4976313;28;20030;-71
2022/03/28 03:08:59;;;;;;;2.85;0.32;;;30.20;98.50;;;;;;4971506;28;20097;-71
2022/03/28 03:11:26;;;;;;;2.45;0.43;;;29.90;99.00;;;;;;4976306;28;20030;-71
2022/03/28 03:13:56;;;;;;;2.80;0.30;;;29.90;99.10;;;;;;4974214;28;20080;-71
2022/03/28 03:16:24;;;;;;;1.83;0.35;;;29.90;99.10;;;;;;4971798;28;20042;-72
2022/03/28 03:18:51;;;;;;;1.33;0.30;;;29.70;99.20;;;;;;4970758;28;20031;-72
2022/03/28 03:21:19;;;;;;;1.77;0.30;;;29.60;99.40;;;;;;4973460;28;20027;-70
2022/03/28 03:23:46;;;;;;;1.95;0.30;;;29.60;99.30;;;;;;4971978;28;20106;-71
2022/03/28 03:26:14;;;;;;;0.63;0.30;;;29.80;99.30;;;;;;4973452;28;20027;-70
2022/03/28 03:28:41;;;;;;;2.00;0.30;;;30.10;98.70;;;;;;4973766;28;20503;-70
2022/03/28 03:31:09;;;;;;;1.02;0.35;;;30.20;98.40;;;;;;4990798;28;20066;-69
2022/03/28 03:33:36;;;;;;;0.30;0.25;;;30.20;98.60;;;;;;4979716;28;20046;-70
2022/03/28 03:36:03;;;;;;;1.95;0.40;;;30.20;98.90;;;;;;4985713;28;20022;-71
2022/03/28 03:38:31;;;;;;;0.77;0.20;;;30.30;98.30;;;;;;4975893;28;20039;-71
2022/03/28 03:40:58;;;;;;;0.73;0.30;;;30.30;98.00;;;;;;4991960;28;20033;-70
2022/03/28 03:43:25;;;;;;;0.90;0.20;;;30.30;98.20;;;;;;4987546;28;20046;-71
2022/03/28 03:45:53;;;;;;;0.20;0.20;;;30.60;98.20;;;;;;4989915;28;20035;-71
2022/03/28 03:48:20;;;;;;;3.25;0.40;;;30.60;98.20;;;;;;5006736;28;20013;-71
2022/03/28 03:50:48;;;;;;;1.38;0.52;;;30.60;97.80;;;;;;4994794;28;20037;-72
2022/03/28 03:53:15;;;;;;;0.38;0.20;;;30.30;97.50;;;;;;4996027;28;20046;-73
2022/03/28 03:55:42;;;;;;;1.25;0.38;;;30.10;97.90;;;;;;4991314;28;20508;-71
2022/03/28 03:58:10;;;;;;;0.20;0.10;;;30.20;97.90;;;;;;4977916;28;20068;-72
2022/03/28 04:00:37;;;;;;;0.20;0.10;;;30.30;97.40;;;;;;4984598;28;20030;-71
2022/03/28 04:03:05;;;;;;;1.30;0.22;;;30.40;96.90;;;;;;4981193;28;20118;-71
2022/03/28 04:05:34;;;;;;;2.50;0.60;;;30.30;96.90;;;;;;4979576;28;20018;-71
2022/03/28 04:08:02;;;;;;;1.70;0.60;;;30.40;97.70;;;;;;4983797;28;20388;-71
2022/03/28 04:10:31;;;;;;;1.15;0.40;;;30.40;97.60;;;;;;4975218;28;20081;-71
2022/03/28 04:12:59;;;;;;;1.27;0.90;;;30.40;98.10;;;;;;4973957;28;20520;-72
2022/03/28 04:15:26;;;;;;;1.73;0.57;;;30.40;98.30;;;;;;4989373;28;20034;-71
2022/03/28 04:17:54;;;;;;;2.47;0.80;;;30.40;98.40;;;;;;4981169;28;20053;-71
2022/03/28 04:20:22;;;;;;;1.50;0.70;;;30.20;98.20;;;;;;4973812;28;20034;-72
2022/03/28 04:22:51;;;;;;;2.47;0.93;;;29.90;98.70;;;;;;4976353;28;20080;-72
2022/03/28 04:25:18;;;;;;;3.40;1.30;;;29.50;99.10;;;;;;4974270;28;20162;-72
2022/03/28 04:27:45;;;;;;;3.30;0.82;;;29.30;99.60;;;;;;4981562;28;20023;-71
2022/03/28 04:30:14;;;;;;;1.75;0.68;;;29.10;99.90;;;;;;4988499;28;20045;-71
2022/03/28 04:32:42;;;;;;;2.58;0.80;;;28.90;99.90;;;;;;4974115;28;20149;-71
2022/03/28 04:35:10;;;;;;;3.63;0.93;;;28.60;99.90;;;;;;4983274;28;20035;-71
2022/03/28 04:37:39;;;;;;;3.05;1.15;;;28.50;99.90;;;;;;4986237;28;20015;-71
2022/03/28 04:40:11;;;;;;;2.45;0.93;;;28.50;99.90;;;;;;4974686;28;20027;-72
2022/03/28 04:42:38;;;;;;;2.80;0.90;;;28.50;99.90;;;;;;4984445;28;20034;-72
2022/03/28 04:45:07;;;;;;;3.88;1.67;;;28.50;99.90;;;;;;4986396;28;20030;-71
2022/03/28 04:47:35;;;;;;;0.90;0.55;;;28.50;99.90;;;;;;4990435;28;20026;-71
2022/03/28 04:50:04;;;;;;;3.20;0.80;;;28.30;99.90;;;;;;4986103;28;20027;-72
2022/03/28 04:52:32;;;;;;;2.08;0.80;;;28.20;99.90;;;;;;4976688;28;20035;-72
2022/03/28 04:54:59;;;;;;;3.05;0.80;;;28.10;99.90;;;;;;4979179;28;20040;-72
2022/03/28 04:57:27;;;;;;;2.95;0.70;;;28.00;99.90;;;;;;4990128;28;20052;-72
2022/03/28 04:59:54;;;;;;;1.33;0.50;;;27.80;99.90;;;;;;4990151;28;20035;-72
2022/03/28 05:02:22;;;;;;;5.43;0.90;;;27.70;99.90;;;;;;4990845;28;20034;-71
2022/03/28 05:04:49;;;;;;;3.97;0.55;;;27.60;99.90;;;;;;4982619;28;20042;-71
2022/03/28 05:07:37;;;;;;;0.93;0.73;;;27.50;99.90;;;;;;4980582;28;20034;-71
2022/03/28 05:10:06;;;;;;;2.40;0.98;;;27.40;99.90;;;;;;4980936;28;20113;-71
2022/03/28 05:12:34;;;;;;;1.02;0.50;;;27.30;99.90;;;;;;4970837;28;20483;-71
2022/03/28 05:15:03;;;;;;;1.83;0.52;;;27.30;99.90;;;;;;4985423;28;20069;-71
2022/03/28 05:17:32;;;;;;;1.80;0.80;;;27.40;99.90;;;;;;4990293;28;20117;-70
2022/03/28 05:20:01;;;;;;;4.28;0.77;;;27.50;99.90;;;;;;4979991;28;20054;-70
2022/03/28 05:22:28;;;;;;;1.77;0.77;;;27.50;99.90;;;;;;4973551;28;20559;-70
2022/03/28 05:24:57;;;;;;;4.40;0.90;;;27.30;99.90;;;;;;4974181;28;20041;-70
2022/03/28 05:27:25;;;;;;;1.65;0.90;;;27.20;99.90;;;;;;4974914;28;20035;-69
2022/03/28 05:29:52;;;;;;;2.13;0.80;;;27.00;99.90;;;;;;4973999;28;20037;-71
2022/03/28 05:32:20;;;;;;;2.55;1.02;;;26.90;99.90;;;;;;4975023;28;20022;-70
2022/03/28 05:34:47;;;;;;;3.13;1.50;;;26.90;99.90;;;;;;4975649;28;20039;-71
2022/03/28 05:37:16;;;;;;;4.60;1.65;;;26.90;99.90;;;;;;4973823;28;20548;-71
2022/03/28 05:39:48;;;;;;;5.65;0.95;;;27.00;99.90;;;;;;4972395;28;20076;-70
2022/03/28 05:42:17;;;;;;;3.65;1.10;;;26.90;99.90;;;;;;4976495;28;20100;-70
2022/03/28 05:44:45;;;;;;;1.58;0.60;;;26.70;99.90;;;;;;4975699;28;20100;-70
2022/03/28 05:47:12;;;;;;;2.13;0.90;;;26.70;99.90;;;;;;4977219;28;20042;-70
2022/03/28 05:49:40;;;;;;;3.17;1.13;;;26.60;99.90;;;;;;4975944;28;20492;-70
2022/03/28 05:52:08;;;;;;;2.00;0.77;;;26.50;99.90;;;;;;4974975;28;20042;-70
2022/03/28 05:54:36;;;;;;;1.30;0.90;;;26.40;99.90;;;;;;4971375;28;20653;-71
2022/03/28 05:57:05;;;;;;;2.55;1.48;;;26.30;99.90;;;;;;4971959;28;20047;-70
2022/03/28 05:59:32;;;;;;;3.90;1.40;;;26.10;99.90;;;;;;4973955;28;20049;-70
2022/03/28 06:02:00;;;;;;;4.20;1.60;;;26.00;99.90;;;;;;4978083;28;20023;-70
2022/03/28 06:04:28;;;;;;;6.38;1.38;;;25.90;99.90;;;;;;4971689;28;20114;-70
2022/03/28 06:06:55;;;;;;;3.30;1.15;;;25.90;99.90;;;;;;4971144;28;20092;-71
2022/03/28 06:09:22;;;;;;;2.10;0.80;;;25.80;99.90;;;;;;4974533;28;20578;-70
2022/03/28 06:11:50;;;;;;;3.10;1.25;;;25.70;99.90;;;;;;4987781;28;20026;-71
2022/03/28 06:14:17;;;;;;;4.50;1.25;;;25.70;99.90;;;;;;4972822;28;20076;-71
2022/03/28 06:16:44;;;;;;;2.55;1.23;;;25.60;99.90;;;;;;4978493;28;20030;-72
2022/03/28 06:19:12;;;;;;;3.55;1.13;;;25.50;99.90;;;;;;4974510;28;20034;-71
2022/03/28 06:21:40;;;;;;;2.33;1.30;;;25.40;99.90;;;;;;4988121;28;20073;-71
2022/03/28 06:24:08;;;;;;;7.00;1.75;;;25.30;99.90;;;;;;4982446;28;20092;-71
2022/03/28 06:26:35;;;;;;;2.83;1.48;;;25.30;99.90;;;;;;4987189;28;20037;-71
2022/03/28 06:29:03;;;;;;;2.35;1.30;;;25.20;99.90;;;;;;4978318;28;20041;-71
2022/03/28 06:31:31;;;;;;;2.50;1.40;;;25.00;99.90;;;;;;4972364;28;20109;-71
2022/03/28 06:34:02;;;;;;;2.25;1.17;;;25.00;99.90;;;;;;4983173;28;20054;-71
2022/03/28 06:36:32;;;;;;;3.03;1.63;;;25.00;99.90;;;;;;4984001;28;20045;-71
2022/03/28 06:39:02;;;;;;;3.90;1.60;;;25.00;99.90;;;;;;4975748;28;20125;-71
2022/03/28 06:41:30;;;;;;;4.03;1.73;;;24.90;99.90;;;;;;4977607;28;20039;-71
2022/03/28 06:43:57;;;;;;;3.30;1.00;;;24.70;99.90;;;;;;4974151;28;20041;-72
2022/03/28 06:46:24;;;;;;;4.60;1.63;;;24.60;99.90;;;;;;4972065;28;20034;-71
2022/03/28 06:48:54;;;;;;;3.55;1.83;;;24.50;99.90;;;;;;4981597;28;20026;-72
2022/03/28 06:51:21;;;;;;;3.03;1.75;;;24.40;99.90;;;;;;4986465;28;20042;-73
2022/03/28 06:53:49;;;;;;;3.47;1.42;;;24.40;99.90;;;;;;4980257;28;20476;-73
2022/03/28 06:56:17;;;;;;;4.55;1.13;;;24.30;99.90;;;;;;4984800;28;20370;-74
2022/03/28 06:58:45;;;;;;;4.47;1.45;;;24.20;99.90;;;;;;4983958;28;20053;-71
2022/03/28 07:01:12;;;;;;;2.20;1.25;;;24.10;99.90;;;;;;4973561;28;20034;-72
2022/03/28 07:03:39;;;;;;;1.70;0.70;;;24.00;99.90;;;;;;4974200;28;20033;-72
2022/03/28 07:06:09;;;;;;;3.40;0.68;;;24.00;99.90;;;;;;4982348;28;20420;-72
2022/03/28 07:08:37;;;;;;;5.38;0.70;;;23.70;99.90;;;;;;4981143;28;20141;-72
2022/03/28 07:11:05;;;;;;;1.83;0.70;;;23.50;99.90;;;;;;4991284;28;20041;-73
2022/03/28 07:13:33;;;;;;;1.80;0.50;;;23.30;99.90;;;;;;4991582;28;20141;-73
2022/03/28 07:16:00;;;;;;;2.65;1.30;;;23.20;99.90;;;;;;4988589;28;20084;-73
2022/03/28 07:18:27;;;;;;;10.00;1.35;;;23.10;99.90;;;;;;4975135;28;20108;-73
2022/03/28 07:20:55;;;;;;;3.35;1.77;;;23.00;99.90;;;;;;4992226;28;20033;-73
2022/03/28 07:23:22;;;;;;;4.07;1.45;;;22.90;99.90;;;;;;4985620;28;20031;-73
2022/03/28 07:25:50;;;;;;;5.47;1.42;;;22.80;99.90;;;;;;4983990;28;20100;-73
2022/03/28 07:28:17;;;;;;;3.25;2.03;;;22.80;99.90;;;;;;4974983;28;20027;-73
2022/03/28 07:30:45;;;;;;;4.35;1.92;;;22.70;99.90;;;;;;4975322;28;20437;-72
2022/03/28 07:33:13;;;;;;;4.60;1.83;;;22.70;99.90;;;;;;4973316;28;20046;-73
2022/03/28 07:35:41;;;;;;;4.93;2.20;;;22.70;99.90;;;;;;4977317;28;20538;-73
2022/03/28 07:41:30;;;;;;;3.85;1.75;;;22.70;99.90;;;;;;4977762;28;20526;-72
2022/03/28 07:43:58;;;;;;;5.97;2.13;;;22.70;99.90;;;;;;4986243;28;20029;-74
2022/03/28 07:46:25;;;;;;;2.92;1.88;;;22.60;99.90;;;;;;4984415;28;20576;-73
2022/03/28 07:48:55;;;;;;;2.28;1.73;;;22.60;99.90;;;;;;4974978;28;20030;-73
2022/03/28 07:51:22;;;;;;;4.10;1.95;;;22.50;99.90;;;;;;4982138;28;20026;-74
2022/03/28 07:53:49;;;;;;;6.47;2.25;;;22.50;99.90;;;;;;4980506;28;20046;-74
2022/03/28 07:56:18;;;;;;;5.40;3.00;;;22.60;99.90;;;;;;4974652;28;20034;-73
2022/03/28 07:58:45;;;;;;;5.25;2.25;;;22.50;99.90;;;;;;4975085;28;20046;-73
2022/03/28 08:01:13;;;;;;;6.80;3.28;;;22.50;99.90;;;;;;4980480;28;20708;-73
2022/03/28 08:03:40;;;;;;;4.65;3.08;;;22.40;99.90;;;;;;4980436;28;20039;-73
2022/03/28 08:06:08;;;;;;;7.35;4.05;;;22.40;99.90;;;;;;4982364;28;20026;-72
2022/03/28 08:08:37;;;;;;;6.72;4.32;;;22.30;99.90;;;;;;4973640;28;20492;-72
2022/03/28 08:11:07;;;;;;;12.60;6.00;;;22.30;99.90;;;;;;4979507;28;20088;-74
2022/03/28 08:13:36;;;;;;;10.60;6.05;;;22.20;99.90;;;;;;4983703;28;20590;-73
2022/03/28 08:16:04;;;;;;;9.85;3.97;;;22.20;99.90;;;;;;4984970;28;20027;-73
2022/03/28 08:18:32;;;;;;;5.32;3.97;;;22.10;99.90;;;;;;4984409;28;20042;-73
2022/03/28 08:21:00;;;;;;;4.65;3.10;;;22.10;99.90;;;;;;4982817;28;20591;-73
2022/03/28 08:23:27;;;;;;;5.35;3.53;;;22.10;99.90;;;;;;4982247;28;20066;-73
2022/03/28 08:25:54;;;;;;;6.40;3.17;;;22.10;99.90;;;;;;4977337;28;20022;-73
2022/03/28 08:28:23;;;;;;;7.30;3.35;;;22.10;99.90;;;;;;4991435;28;20488;-73
2022/03/28 08:30:50;;;;;;;4.53;3.70;;;22.10;99.90;;;;;;4978412;28;20057;-74
2022/03/28 08:33:18;;;;;;;6.97;4.05;;;22.00;99.90;;;;;;4983586;28;20050;-73
2022/03/28 08:35:45;;;;;;;6.60;3.08;;;22.00;99.90;;;;;;4981932;28;20023;-73
2022/03/28 08:38:12;;;;;;;7.38;3.03;;;22.00;99.90;;;;;;4989752;28;20599;-74
2022/03/28 08:40:42;;;;;;;4.32;3.15;;;22.00;99.90;;;;;;4988764;28;20042;-72
2022/03/28 08:43:10;;;;;;;6.75;3.30;;;22.00;99.90;;;;;;4986124;28;20034;-72
2022/03/28 08:45:38;;;;;;;5.28;3.15;;;22.00;99.90;;;;;;4974629;28;20393;-72
2022/03/28 08:48:07;;;;;;;5.63;3.08;;;21.90;99.90;;;;;;4983054;28;20038;-73
2022/03/28 08:50:36;;;;;;;5.80;3.00;;;22.00;99.90;;;;;;4978382;28;20041;-73
2022/03/28 08:53:05;;;;;;;3.83;2.72;;;21.90;99.90;;;;;;4972242;28;20049;-73
2022/03/28 08:55:33;;;;;;;7.40;2.88;;;21.90;99.90;;;;;;4980103;28;20040;-73
2022/03/28 08:58:00;;;;;;;3.83;2.83;;;21.90;99.90;;;;;;4985242;28;20023;-73
2022/03/28 09:00:27;;;;;;;4.50;2.78;;;21.90;99.90;;;;;;4972962;28;20409;-73
2022/03/28 09:02:58;;;;;;;3.92;2.50;;;21.90;99.90;;;;;;4986239;28;20030;-73
2022/03/28 09:05:38;;;;;;;4.63;2.20;;;21.90;99.90;;;;;;4973284;28;20469;-73
2022/03/28 09:08:08;;;;;;;3.45;1.98;;;21.80;99.90;;;;;;4973836;28;20650;-73
2022/03/28 09:10:36;;;;;;;2.30;2.10;;;21.80;99.90;;;;;;4984903;28;21872;-73
2022/03/28 09:13:06;;;;;;;3.05;1.55;;;21.80;99.90;;;;;;4976258;28;20050;-72
2022/03/28 09:15:57;;;;;;;3.88;2.03;;;21.80;99.90;;;;;;4975008;28;20485;-74
2022/03/28 09:18:34;;;;;;;2.95;1.67;;;21.80;99.90;;;;;;4978598;28;20041;-74
2022/03/28 09:21:07;;;;;;;3.70;1.70;;;21.80;99.90;;;;;;4981492;28;20033;-73
2022/03/28 09:23:44;;;;;;;4.63;2.33;;;21.80;99.90;;;;;;4986082;28;20030;-72
2022/03/28 09:26:18;;;;;;;3.80;1.80;;;21.80;99.90;;;;;;4989704;28;20027;-74
2022/03/28 09:28:56;;;;;;;3.33;2.45;;;21.80;99.90;;;;;;4973467;28;20022;-72
2022/03/28 09:31:25;;;;;;;2.28;1.67;;;21.70;99.90;;;;;;4980326;28;20026;-73
2022/03/28 09:34:06;;;;;;;4.35;2.05;;;21.70;99.90;;;;;;4977777;28;20485;-73
2022/03/28 09:36:47;;;;;;;2.95;1.63;;;21.70;99.90;;;;;;4979243;28;20041;-73
2022/03/28 09:39:21;;;;;;;3.53;2.10;;;21.70;99.90;;;;;;4976457;28;20113;-72
2022/03/28 09:42:10;;;;;;;3.92;1.90;;;21.70;99.90;;;;;;4978728;28;20062;-74
2022/03/28 09:44:53;;;;;;;4.55;2.17;;;21.60;99.90;;;;;;4972351;28;20034;-74
2022/03/28 09:47:24;;;;;;;3.42;2.03;;;21.60;99.90;;;;;;4985424;28;20037;-74
2022/03/28 09:49:57;;;;;;;3.13;1.85;;;21.60;99.90;;;;;;4971433;28;20038;-74
2022/03/28 09:52:29;;;;;;;4.65;2.25;;;21.60;99.90;;;;;;4985589;28;20161;-74
2022/03/28 09:54:59;;;;;;;5.97;2.97;;;21.60;99.90;;;;;;4972568;28;20034;-73
2022/03/28 09:57:34;;;;;;;3.90;2.35;;;21.60;99.90;;;;;;4985094;28;20042;-74
2022/03/28 10:00:12;;;;;;;3.47;2.28;;;21.60;99.90;;;;;;4982470;28;20088;-74
2022/03/28 10:02:40;;;;;;;6.03;3.55;;;21.50;99.90;;;;;;4971887;28;20481;-73
2022/03/28 10:05:08;;;;;;;9.20;3.67;;;21.50;99.90;;;;;;4972025;28;20048;-73
2022/03/28 10:07:35;;;;;;;5.30;3.25;;;21.60;99.90;;;;;;4976787;28;20477;-74
2022/03/28 10:10:04;;;;;;;7.40;4.43;;;21.60;99.90;;;;;;4985537;28;20500;-73
2022/03/28 10:12:32;;;;;;;5.03;3.90;;;21.60;99.90;;;;;;4974186;28;20076;-73
2022/03/28 10:15:01;;;;;;;5.40;4.03;;;21.50;99.90;;;;;;4972069;28;20035;-73
2022/03/28 10:17:31;;;;;;;5.10;4.18;;;21.50;99.90;;;;;;4984915;28;20527;-73
2022/03/28 10:19:59;;;;;;;7.50;4.50;;;21.50;99.90;;;;;;4974854;28;20035;-73
2022/03/28 10:22:46;;;;;;;4.88;3.95;;;21.50;99.90;;;;;;4979147;28;20531;-73
2022/03/28 10:25:19;;;;;;;5.68;4.28;;;21.50;99.90;;;;;;4978614;28;20030;-73
2022/03/28 10:27:48;;;;;;;6.93;4.18;;;21.50;99.90;;;;;;4988435;28;20034;-74
2022/03/28 10:30:24;;;;;;;5.60;3.83;;;21.50;99.90;;;;;;4975268;28;20429;-73
2022/03/28 10:33:19;;;;;;;7.53;4.95;;;21.50;99.90;;;;;;4984772;28;20054;-74
2022/03/28 10:36:19;;;;;;;7.13;4.32;;;21.40;99.90;;;;;;4973124;28;20042;-72
2022/03/28 10:38:47;;;;;;;6.30;4.13;;;21.50;99.90;;;;;;4982984;28;20035;-73
2022/03/28 10:41:19;;;;;;;5.35;3.88;;;21.40;99.90;;;;;;4984279;28;20022;-73
2022/03/28 10:43:47;;;;;;;7.30;4.70;;;21.40;99.90;;;;;;4984416;28;20087;-73
2022/03/28 10:46:16;;;;;;;9.05;4.43;;;21.40;99.90;;;;;;4977999;28;20428;-73
2022/03/28 10:48:53;;;;;;;5.82;4.35;;;21.40;99.90;;;;;;4981608;28;20034;-73
2022/03/28 10:51:26;;;;;;;6.53;3.92;;;21.30;99.90;;;;;;4982786;28;20034;-73
2022/03/28 10:53:56;;;;;;;5.65;3.70;;;21.30;99.90;;;;;;4987919;28;20568;-73
2022/03/28 10:56:30;;;;;;;6.53;3.90;;;21.30;99.90;;;;;;4975703;28;20121;-73
2022/03/28 10:59:11;;;;;;;4.85;3.55;;;21.30;99.90;;;;;;4974893;28;20062;-73
2022/03/28 11:01:43;;;;;;;6.57;4.35;;;21.30;99.90;;;;;;4985392;28;20027;-73
2022/03/28 11:04:16;;;;;;;4.93;3.50;;;21.30;99.90;;;;;;4978515;28;20105;-73
2022/03/28 11:06:50;;;;;;;5.75;3.80;;;21.30;99.90;;;;;;4986119;28;20030;-73
2022/03/28 11:09:43;;;;;;;6.20;3.40;;;21.30;99.90;;;;;;4993183;28;20030;-73
2022/03/28 11:12:32;;;;;;;4.20;3.80;;;21.30;99.90;;;;;;4981408;28;20042;-73
2022/03/28 11:15:08;;;;;;;5.45;3.53;;;21.30;99.90;;;;;;4994985;28;20088;-73
2022/03/28 11:17:52;;;;;;;3.72;3.42;;;21.30;99.90;;;;;;4985444;28;20038;-73
2022/03/28 11:20:20;;;;;;;3.33;3.00;;;21.30;99.90;;;;;;4974528;28;20105;-73
2022/03/28 11:23:07;;;;;;;6.20;3.65;;;21.30;99.90;;;;;;4985131;28;20034;-74
2022/03/28 11:26:02;;;;;;;4.97;3.58;;;21.30;99.90;;;;;;4977516;28;20038;-73
2022/03/28 11:28:32;;;;;;;3.20;2.90;;;21.30;99.90;;;;;;4976775;28;20062;-73
2022/03/28 11:31:11;;;;;;;4.07;2.92;;;21.30;99.90;;;;;;4983347;28;20379;-74
2022/03/28 11:33:46;;;;;;;5.75;3.78;;;21.20;99.90;;;;;;4974991;28;20071;-74
2022/03/28 11:36:19;;;;;;;3.35;2.90;;;21.20;99.90;;;;;;4976942;28;20023;-73
2022/03/28 11:38:55;;;;;;;3.70;3.30;;;21.20;99.90;;;;;;4987465;28;20034;-74
2022/03/28 11:41:28;;;;;;;3.40;2.92;;;21.20;99.90;;;;;;4989397;28;20030;-73
2022/03/28 11:43:57;;;;;;;4.80;3.33;;;21.20;99.90;;;;;;4983616;28;20129;-74
2022/03/28 11:46:26;;;;;;;6.38;3.40;;;21.20;99.90;;;;;;4982427;28;20081;-73
2022/03/28 11:49:01;;;;;;;4.65;2.85;;;21.20;99.90;;;;;;4981809;28;20034;-74
2022/03/28 11:51:34;;;;;;;3.65;3.17;;;21.20;99.90;;;;;;4977036;28;20432;-73
2022/03/28 11:54:07;;;;;;;3.70;2.58;;;21.20;99.90;;;;;;4987328;28;20049;-73
2022/03/28 11:59:23;;;;;;;6.10;2.25;;;21.20;99.90;;;;;;4976420;28;20046;-73
2022/03/28 12:02:04;;;;;;;2.78;2.33;;;21.20;99.90;;;;;;4978487;28;20019;-73
2022/03/28 12:04:31;;;;;;;6.22;2.63;;;21.20;99.90;;;;;;4975016;28;20037;-73
2022/03/28 12:06:59;;;;;;;4.53;3.08;;;21.10;99.90;;;;;;4984446;28;20037;-74
2022/03/28 12:09:27;;;;;;;4.97;2.65;;;21.20;99.90;;;;;;4991710;28;20030;-74
2022/03/28 12:11:56;;;;;;;2.60;2.38;;;21.20;99.90;;;;;;4985355;28;20504;-73
2022/03/28 12:14:25;;;;;;;3.53;2.97;;;21.10;99.90;;;;;;4984637;28;20097;-74
2022/03/28 12:16:57;;;;;;;3.80;1.60;;;21.10;99.90;;;;;;4986288;28;20030;-73
2022/03/28 12:19:27;;;;;;;4.60;2.30;;;21.10;99.90;;;;;;5006771;28;20054;-74
2022/03/28 12:21:57;;;;;;;2.70;2.15;;;21.20;99.90;;;;;;4999223;28;20023;-73
2022/03/28 12:24:25;;;;;;;3.05;2.30;;;21.10;99.90;;;;;;5000439;28;20095;-74
2022/03/28 12:26:59;;;;;;;1.88;1.67;;;21.10;99.90;;;;;;4998480;28;20078;-74
2022/03/28 12:29:32;;;;;;;1.52;1.42;;;21.10;99.90;;;;;;4988023;28;20026;-74
2022/03/28 12:32:04;;;;;;;2.45;1.95;;;21.10;99.90;;;;;;4981573;28;20109;-73
2022/03/28 12:34:33;;;;;;;2.22;1.52;;;21.10;99.90;;;;;;4975595;28;20036;-73
2022/03/28 12:37:00;;;;;;;6.28;2.85;;;21.10;99.90;;;;;;4973178;28;20054;-73
2022/03/28 12:39:28;;;;;;;2.83;2.45;;;21.10;99.90;;;;;;4989237;28;20046;-74
2022/03/28 12:41:58;;;;;;;2.95;1.70;;;21.10;99.90;;;;;;4980493;28;20085;-75
2022/03/28 12:44:26;;;;;;;2.67;1.77;;;21.10;99.90;;;;;;4985348;28;20022;-74
2022/03/28 12:47:04;;;;;;;3.85;2.83;;;21.10;99.90;;;;;;4980762;28;20159;-74
2022/03/28 12:49:43;;;;;;;4.03;2.22;;;21.10;99.90;;;;;;4976616;28;20077;-75
2022/03/28 12:52:14;;;;;;;2.20;2.00;;;21.10;99.90;;;;;;4974121;28;20019;-75
2022/03/28 12:54:42;;;;;;;4.60;2.60;;;21.10;99.90;;;;;;4971514;28;20051;-75
2022/03/28 12:57:10;;;;;;;2.90;2.05;;;21.10;99.90;;;;;;4975952;28;20041;-75
2022/03/28 12:59:38;;;;;;;5.00;3.25;;;21.10;99.90;;;;;;4978511;28;20022;-75
2022/03/28 13:02:16;;;;;;;4.10;2.88;;;21.10;99.90;;;;;;4973919;28;20026;-74
2022/03/28 13:04:52;;;;;;;3.38;2.63;;;21.00;99.90;;;;;;4976457;28;20041;-74
2022/03/28 13:07:23;;;;;;;3.60;2.55;;;21.00;99.90;;;;;;4971433;28;20358;-73
2022/03/28 13:09:55;;;;;;;4.47;2.80;;;21.10;99.90;;;;;;4983793;28;20027;-74